Time;durP1;ratioP1;P1;durP2;ratioP2;P2;SDS_P1;SDS_P2;PMS_P1;PMS_P2;Temp;Humidity;BMP_temperature;BMP_pressure;BME280_temperature;BME280_humidity;BME280_pressure;Samples;Min_cycle;Max_cycle;Signal;HPM_P1;HPM_P2
2022/06/13 00:00:20;;;;;;;19.52;13.80;;;;;;;16.01;91.49;96222.47;2009675;29;20061;-62
2022/06/13 00:01:27;;;;;;;19.42;14.65;;;;;;;16.04;92.31;96218.81;2019201;29;20049;-61
2022/06/13 00:02:28;;;;;;;17.40;13.13;;;;;;;16.06;91.76;96216.91;2033258;29;20055;-61
2022/06/13 00:03:29;;;;;;;21.25;15.02;;;;;;;16.08;92.14;96215.84;2025822;29;20032;-62
2022/06/13 00:04:31;;;;;;;22.05;15.23;;;;;;;16.13;92.35;96215.56;2017825;29;20592;-62
2022/06/13 00:05:32;;;;;;;25.63;17.63;;;;;;;16.06;92.91;96219.50;2009990;29;20060;-62
2022/06/13 00:06:34;;;;;;;16.63;14.20;;;;;;;16.09;92.27;96221.94;2010161;29;20041;-60
2022/06/13 00:07:35;;;;;;;18.95;14.85;;;;;;;16.04;92.21;96222.25;2010575;29;20521;-64
2022/06/13 00:08:37;;;;;;;15.82;12.73;;;;;;;16.03;92.25;96225.78;2017648;29;20052;-60
2022/06/13 00:09:38;;;;;;;17.00;12.95;;;;;;;16.05;91.72;96233.56;2017611;29;20059;-62
2022/06/13 00:10:39;;;;;;;23.10;15.65;;;;;;;16.01;92.59;96230.31;2017719;29;20044;-62
2022/06/13 00:11:40;;;;;;;20.13;14.10;;;;;;;16.00;92.40;96239.09;2025255;29;20436;-64
2022/06/13 00:12:42;;;;;;;24.55;15.93;;;;;;;15.96;92.58;96232.38;2025749;29;20048;-64
2022/06/13 00:13:48;;;;;;;19.25;14.02;;;;;;;16.00;92.31;96240.88;2017687;29;20048;-63
2022/06/13 00:14:49;;;;;;;20.42;15.82;;;;;;;16.06;93.17;96237.84;2018776;29;20072;-67
2022/06/13 00:15:51;;;;;;;18.63;14.02;;;;;;;16.07;92.82;96239.56;2025180;29;20044;-63
2022/06/13 00:16:52;;;;;;;17.75;13.80;;;;;;;16.10;93.34;96242.81;2025246;29;20056;-64
2022/06/13 00:17:53;;;;;;;17.15;13.50;;;;;;;16.19;92.71;96237.91;2017608;29;20071;-67
2022/06/13 00:18:55;;;;;;;19.40;15.38;;;;;;;16.20;93.29;96243.06;2032926;29;20056;-63
2022/06/13 00:19:56;;;;;;;27.10;15.70;;;;;;;16.17;92.95;96247.63;2025987;29;20045;-63
2022/06/13 00:20:57;;;;;;;20.13;15.60;;;;;;;16.20;93.16;96250.91;2010027;29;20433;-63
2022/06/13 00:21:58;;;;;;;19.23;14.18;;;;;;;16.12;93.49;96247.09;2009798;29;20470;-62
2022/06/13 00:23:00;;;;;;;15.77;13.07;;;;;;;16.06;93.17;96241.34;2017700;29;20057;-66
2022/06/13 00:24:03;;;;;;;14.93;13.38;;;;;;;16.05;93.16;96251.91;2017494;29;20053;-63
2022/06/13 00:25:05;;;;;;;17.33;13.30;;;;;;;15.99;93.52;96245.28;2017658;29;20049;-63
2022/06/13 00:26:06;;;;;;;17.10;13.20;;;;;;;15.98;93.46;96251.44;2006170;29;20053;-66
2022/06/13 00:27:07;;;;;;;15.32;12.30;;;;;;;16.01;93.31;96258.25;2017899;29;20056;-63
2022/06/13 00:28:08;;;;;;;19.35;13.90;;;;;;;16.04;93.03;96260.72;2017004;29;20056;-63
2022/06/13 00:29:09;;;;;;;17.13;13.32;;;;;;;16.08;93.43;96260.38;2017358;29;20057;-63
2022/06/13 00:30:11;;;;;;;19.85;15.35;;;;;;;16.09;93.60;96258.59;2009552;29;20049;-64
2022/06/13 00:31:12;;;;;;;17.15;14.45;;;;;;;16.07;93.42;96258.72;2010112;29;20049;-66
2022/06/13 00:32:14;;;;;;;18.15;15.77;;;;;;;16.04;93.19;96263.34;2010132;29;20057;-64
2022/06/13 00:33:15;;;;;;;20.13;15.30;;;;;;;15.99;93.03;96271.47;2010230;29;20418;-63
2022/06/13 00:34:16;;;;;;;17.13;12.82;;;;;;;15.98;93.76;96271.56;2009944;29;20058;-63
2022/06/13 00:35:17;;;;;;;17.92;14.18;;;;;;;16.01;93.13;96271.38;2009917;29;20057;-64
2022/06/13 00:36:21;;;;;;;17.92;13.77;;;;;;;15.99;93.42;96274.09;2017520;29;20577;-65
2022/06/13 00:37:22;;;;;;;17.02;13.60;;;;;;;15.95;92.62;96285.69;2010088;29;20066;-60
2022/06/13 00:38:24;;;;;;;16.17;13.98;;;;;;;15.94;92.99;96283.19;2009930;29;20473;-65
2022/06/13 00:39:25;;;;;;;14.60;12.02;;;;;;;15.92;92.93;96285.91;2009634;29;20060;-65
2022/06/13 00:40:26;;;;;;;18.27;12.70;;;;;;;15.91;92.87;96292.09;2010247;29;20053;-64
2022/06/13 00:41:32;;;;;;;14.73;12.25;;;;;;;15.89;92.97;96296.56;2025261;29;20500;-64
2022/06/13 00:42:33;;;;;;;17.00;11.40;;;;;;;15.88;93.21;96300.13;2025185;29;20040;-61
2022/06/13 00:43:35;;;;;;;14.65;11.70;;;;;;;15.90;92.54;96300.84;2017535;29;20059;-61
2022/06/13 00:44:37;;;;;;;13.13;11.40;;;;;;;15.94;92.68;96288.44;2010323;29;20060;-67
2022/06/13 00:45:39;;;;;;;14.20;11.27;;;;;;;15.99;92.58;96289.81;2009490;29;20053;-62
2022/06/13 00:46:40;;;;;;;17.80;12.70;;;;;;;16.03;92.53;96275.56;2009704;29;20544;-59
2022/06/13 00:47:43;;;;;;;16.98;11.18;;;;;;;16.02;92.60;96292.22;2006901;29;20045;-63
2022/06/13 00:48:44;;;;;;;16.45;11.20;;;;;;;16.02;92.32;96294.00;2010464;29;20049;-63
2022/06/13 00:49:46;;;;;;;15.80;11.23;;;;;;;16.04;92.89;96300.84;2017327;29;20053;-64
2022/06/13 00:50:49;;;;;;;16.77;12.05;;;;;;;16.11;92.85;96303.88;2017650;29;20052;-62
2022/06/13 00:51:55;;;;;;;12.80;11.40;;;;;;;16.10;92.81;96303.06;2009949;29;20057;-62
2022/06/13 00:53:03;;;;;;;13.18;10.88;;;;;;;16.09;92.76;96313.63;2017999;29;20568;-64
2022/06/13 00:54:05;;;;;;;12.77;10.40;;;;;;;16.09;93.15;96313.63;2026118;29;20059;-60
2022/06/13 00:55:09;;;;;;;15.73;11.30;;;;;;;16.11;92.42;96309.13;2032620;29;20282;-64
2022/06/13 00:56:13;;;;;;;15.13;10.95;;;;;;;16.11;92.51;96311.75;2025006;29;20044;-64
2022/06/13 00:57:17;;;;;;;15.90;11.98;;;;;;;16.09;92.63;96309.25;2018197;29;20056;-63
2022/06/13 00:58:18;;;;;;;12.43;10.43;;;;;;;16.10;92.60;96315.31;2025111;29;20055;-63
2022/06/13 00:59:22;;;;;;;15.65;10.18;;;;;;;16.09;92.59;96308.38;2017563;29;20060;-64
2022/06/13 01:00:23;;;;;;;12.68;9.30;;;;;;;16.09;93.05;96316.25;2018256;29;20052;-61
2022/06/13 01:01:24;;;;;;;13.82;9.55;;;;;;;16.06;91.82;96312.06;2024923;29;20055;-63
2022/06/13 01:02:26;;;;;;;13.02;8.82;;;;;;;16.02;92.19;96315.81;2017311;29;20051;-66
2022/06/13 01:03:27;;;;;;;10.18;8.57;;;;;;;16.03;91.87;96317.47;2017384;29;20048;-64
2022/06/13 01:04:28;;;;;;;12.23;9.52;;;;;;;16.04;92.00;96316.56;2024390;29;20056;-63
2022/06/13 01:05:33;;;;;;;14.85;9.48;;;;;;;16.00;91.95;96315.06;2033324;29;20032;-65
2022/06/13 01:06:37;;;;;;;14.05;8.27;;;;;;;15.99;92.01;96312.56;2009504;29;20047;-62
2022/06/13 01:07:38;;;;;;;14.88;9.43;;;;;;;15.98;92.00;96306.44;2003172;29;20046;-66
2022/06/13 01:08:39;;;;;;;11.75;8.48;;;;;;;15.99;92.20;96308.16;2002110;29;20049;-62
2022/06/13 01:12:18;;;;;;;17.77;12.93;;;;;;;16.05;92.98;96320.00;2027082;29;20059;-63
2022/06/13 01:13:19;;;;;;;14.40;11.60;;;;;;;16.02;92.99;96318.44;2025071;29;20053;-64
2022/06/13 01:14:22;;;;;;;12.98;9.52;;;;;;;16.04;92.78;96320.97;2017333;29;20552;-66
2022/06/13 01:15:47;;;;;;;12.48;10.52;;;;;;;16.03;92.53;96325.34;2017771;29;20092;-63
2022/06/13 01:17:24;;;;;;;14.27;10.63;;;;;;;15.97;93.48;96333.59;2027750;29;20424;-64
2022/06/13 01:18:35;;;;;;;15.35;10.20;;;;;;;15.95;92.70;96335.47;2016873;29;20545;-63
2022/06/13 01:19:59;;;;;;;12.95;11.20;;;;;;;15.95;92.56;96339.84;2012176;29;20442;-62
2022/06/13 01:21:09;;;;;;;15.38;12.10;;;;;;;15.94;93.14;96339.03;2012696;29;20218;-64
2022/06/13 01:22:23;;;;;;;23.00;12.27;;;;;;;15.91;93.14;96336.59;2019773;29;20048;-65
2022/06/13 01:23:43;;;;;;;29.15;12.95;;;;;;;15.94;93.20;96340.81;2016964;29;20060;-63
2022/06/13 01:24:59;;;;;;;21.63;13.98;;;;;;;15.86;93.46;96343.91;2013987;29;20050;-62
2022/06/13 01:26:19;;;;;;;19.23;14.48;;;;;;;15.83;93.97;96350.19;2023328;29;20159;-59
2022/06/13 01:27:38;;;;;;;22.17;15.20;;;;;;;15.77;94.01;96349.69;2017278;29;20097;-61
2022/06/13 01:28:52;;;;;;;23.60;15.10;;;;;;;15.79;94.32;96337.34;2011019;29;20433;-60
2022/06/13 01:29:59;;;;;;;19.95;15.57;;;;;;;15.77;94.50;96331.38;2010848;29;20446;-60
2022/06/13 01:31:00;;;;;;;20.38;16.23;;;;;;;15.72;94.47;96325.63;2002834;29;20137;-61
2022/06/13 01:32:09;;;;;;;22.17;17.45;;;;;;;15.71;94.14;96331.75;2002795;29;20050;-61
2022/06/13 01:33:50;;;;;;;16.55;14.85;;;;;;;15.71;94.52;96324.75;2016932;29;20045;-60
2022/06/13 01:35:02;;;;;;;17.23;14.45;;;;;;;15.72;94.56;96323.00;2007038;29;20053;-61
2022/06/13 01:36:17;;;;;;;18.65;14.60;;;;;;;15.73;94.31;96319.44;2007891;29;20071;-62
2022/06/13 01:37:52;;;;;;;18.13;12.98;;;;;;;15.71;93.92;96316.06;2011469;29;20054;-60
2022/06/13 01:39:17;;;;;;;20.15;14.52;;;;;;;15.69;94.41;96312.69;2013724;29;20053;-61
2022/06/13 01:40:38;;;;;;;20.90;15.00;;;;;;;15.67;93.97;96315.38;2009842;29;20052;-61
2022/06/13 01:42:04;;;;;;;19.17;14.45;;;;;;;15.72;94.32;96315.97;2016895;29;20049;-61
2022/06/13 01:43:40;;;;;;;18.80;14.45;;;;;;;15.74;94.25;96308.00;2017478;29;20040;-61
2022/06/13 01:45:08;;;;;;;25.83;15.63;;;;;;;15.73;94.67;96306.34;2021948;29;20044;-63
2022/06/13 01:46:33;;;;;;;21.55;16.35;;;;;;;15.74;94.26;96303.59;2009950;29;20045;-62
2022/06/13 01:47:58;;;;;;;22.88;18.10;;;;;;;15.74;94.41;96294.91;2019941;29;20044;-62
2022/06/13 01:49:39;;;;;;;22.23;16.67;;;;;;;15.71;94.62;96298.56;2023934;29;20044;-62
2022/06/13 01:50:55;;;;;;;14.40;11.07;;;;;;;15.66;94.30;96290.13;2021721;29;20044;-61
2022/06/13 01:52:18;;;;;;;20.00;12.93;;;;;;;15.63;93.80;96283.31;2025876;29;20420;-63
2022/06/13 01:53:31;;;;;;;14.13;12.25;;;;;;;15.62;94.59;96271.16;2033186;29;20056;-64
2022/06/13 01:54:44;;;;;;;19.70;13.55;;;;;;;15.60;94.18;96274.81;2024938;29;20045;-60
2022/06/13 01:56:13;;;;;;;14.32;12.57;;;;;;;15.64;94.22;96276.31;2018246;29;20068;-62
2022/06/13 01:57:32;;;;;;;14.48;11.88;;;;;;;15.60;94.49;96266.97;2028149;29;20044;-63
2022/06/13 01:59:05;;;;;;;14.48;12.30;;;;;;;15.55;93.73;96272.47;2032365;29;20043;-58
2022/06/13 02:00:10;;;;;;;20.00;14.90;;;;;;;15.52;93.66;96264.81;2024500;29;20436;-63
2022/06/13 02:01:34;;;;;;;16.52;14.07;;;;;;;15.48;93.78;96268.59;2028087;29;20104;-60
2022/06/13 02:02:51;;;;;;;16.98;11.77;;;;;;;15.48;93.77;96262.50;2032610;29;20048;-62
2022/06/13 02:03:59;;;;;;;19.85;13.10;;;;;;;15.41;94.25;96262.03;2024812;29;20063;-62
2022/06/13 02:05:07;;;;;;;15.52;13.77;;;;;;;15.41;94.07;96267.28;2024938;29;20336;-63
2022/06/13 02:06:15;;;;;;;18.08;14.20;;;;;;;15.39;94.48;96266.50;2026147;29;20052;-64
2022/06/13 02:07:20;;;;;;;21.60;13.32;;;;;;;15.36;94.22;96251.00;2016988;29;20049;-62
2022/06/13 02:08:23;;;;;;;18.70;13.40;;;;;;;15.35;94.56;96254.56;2023954;29;20095;-62
2022/06/13 02:09:27;;;;;;;19.23;14.73;;;;;;;15.33;94.14;96252.03;2032496;29;20535;-63
2022/06/13 02:10:31;;;;;;;17.45;13.00;;;;;;;15.34;94.38;96252.88;2024566;29;20059;-63
2022/06/13 02:11:39;;;;;;;18.63;14.95;;;;;;;15.35;94.71;96249.34;2017170;29;20048;-62
2022/06/13 02:12:41;;;;;;;18.77;12.53;;;;;;;15.34;94.34;96248.50;2002683;29;20057;-60
2022/06/13 02:14:03;;;;;;;19.95;15.00;;;;;;;15.33;94.43;96246.81;2009647;29;20516;-62
2022/06/13 02:15:12;;;;;;;16.45;12.40;;;;;;;15.37;94.96;96242.22;2027162;29;20051;-60
2022/06/13 02:16:17;;;;;;;20.10;14.25;;;;;;;15.35;94.56;96252.78;2023376;29;20543;-63
2022/06/13 02:17:21;;;;;;;17.98;14.50;;;;;;;15.34;94.68;96248.50;2017540;29;20051;-63
2022/06/13 02:18:27;;;;;;;12.80;10.35;;;;;;;15.30;94.35;96241.78;2017102;29;20049;-63
2022/06/13 02:19:49;;;;;;;17.15;11.82;;;;;;;15.32;94.39;96247.75;2035023;23;20935;-63
2022/06/13 02:20:51;;;;;;;14.38;11.10;;;;;;;15.32;94.50;96249.53;2011828;29;20069;-64
2022/06/13 02:21:57;;;;;;;16.42;12.43;;;;;;;15.31;94.45;96240.00;2016805;29;20057;-64
2022/06/13 02:22:59;;;;;;;13.85;11.15;;;;;;;15.29;94.14;96244.47;2009393;29;20053;-64
2022/06/13 02:24:00;;;;;;;15.45;10.45;;;;;;;15.27;94.21;96241.13;2009166;29;20402;-64
2022/06/13 02:25:04;;;;;;;14.10;11.27;;;;;;;15.26;94.20;96250.72;2009196;29;20060;-64
2022/06/13 02:26:09;;;;;;;11.10;7.53;;;;;;;15.25;94.13;96253.47;2010071;29;20060;-64
2022/06/13 02:27:10;;;;;;;11.77;7.18;;;;;;;15.21;93.83;96253.66;2024640;29;20048;-65
2022/06/13 02:28:17;;;;;;;9.85;8.48;;;;;;;15.22;94.06;96255.31;2016804;29;20060;-64
2022/06/13 02:29:22;;;;;;;8.38;6.25;;;;;;;15.25;94.29;96241.22;2010007;29;20049;-65
2022/06/13 02:30:28;;;;;;;9.15;7.30;;;;;;;15.27;93.90;96247.19;2003034;29;20445;-66
2022/06/13 02:31:34;;;;;;;9.15;7.05;;;;;;;15.24;94.08;96238.72;2002699;29;20462;-64
2022/06/13 02:32:57;;;;;;;9.23;7.15;;;;;;;15.19;93.94;96252.91;2017770;29;20045;-64
2022/06/13 02:34:23;;;;;;;8.82;5.85;;;;;;;15.13;93.90;96252.41;2025098;29;20059;-65
2022/06/13 02:35:29;;;;;;;8.05;5.18;;;;;;;15.10;93.79;96245.63;2017627;29;20057;-64
2022/06/13 02:36:37;;;;;;;6.82;6.00;;;;;;;15.10;93.44;96253.47;2018738;29;20520;-64
2022/06/13 02:37:42;;;;;;;8.50;5.32;;;;;;;15.10;93.10;96252.59;2001716;29;20050;-64
2022/06/13 02:38:48;;;;;;;8.73;5.75;;;;;;;15.09;92.87;96250.94;2002329;29;20111;-64
2022/06/13 02:39:52;;;;;;;8.07;6.57;;;;;;;15.11;93.07;96255.16;2018075;29;20101;-65
2022/06/13 02:40:56;;;;;;;7.85;6.13;;;;;;;15.08;93.34;96246.66;2032800;29;20044;-64
2022/06/13 02:42:05;;;;;;;8.23;6.10;;;;;;;15.09;93.43;96250.94;2024756;29;20063;-65
2022/06/13 02:43:13;;;;;;;9.82;6.15;;;;;;;15.08;93.39;96250.09;2025671;29;20052;-65
2022/06/13 02:44:24;;;;;;;9.25;6.32;;;;;;;15.09;93.65;96249.16;2024501;29;20060;-64
2022/06/13 02:45:29;;;;;;;10.65;7.25;;;;;;;15.05;93.60;96258.16;2018083;29;20053;-64
2022/06/13 02:46:34;;;;;;;12.07;7.18;;;;;;;15.05;93.65;96252.03;2025936;29;20104;-65
2022/06/13 02:47:43;;;;;;;9.80;8.40;;;;;;;15.06;93.68;96257.19;2016967;29;20041;-63
2022/06/13 02:48:50;;;;;;;12.88;8.60;;;;;;;15.12;94.36;96251.59;2018903;29;20056;-65
2022/06/13 02:49:58;;;;;;;14.95;9.20;;;;;;;15.11;94.00;96254.31;2016815;29;20060;-66
2022/06/13 02:51:05;;;;;;;9.68;8.07;;;;;;;15.09;93.94;96243.09;2017401;29;20425;-65
2022/06/13 02:52:20;;;;;;;12.40;6.90;;;;;;;15.08;94.18;96244.88;2025468;29;20044;-64
2022/06/13 02:53:29;;;;;;;11.40;7.80;;;;;;;15.15;93.97;96240.94;2016111;29;20053;-66
2022/06/13 02:54:36;;;;;;;9.15;7.32;;;;;;;15.18;94.80;96232.91;2024213;29;20060;-64
2022/06/13 02:55:42;;;;;;;10.20;7.45;;;;;;;15.18;94.63;96224.19;2024732;29;20056;-65
2022/06/13 02:58:28;;;;;;;12.38;8.65;;;;;;;15.16;94.12;96216.47;2031529;29;20048;-65
2022/06/13 02:59:46;;;;;;;13.63;9.10;;;;;;;15.15;94.98;96208.72;2016690;29;20040;-66
2022/06/13 03:01:09;;;;;;;11.93;8.82;;;;;;;15.15;94.19;96214.78;2016951;29;20052;-66
2022/06/13 03:02:11;;;;;;;14.73;10.73;;;;;;;15.12;94.76;96220.19;2007802;29;20045;-65
2022/06/13 03:03:32;;;;;;;13.25;10.13;;;;;;;15.08;94.29;96229.19;2016627;29;20413;-65
2022/06/13 03:04:40;;;;;;;12.63;9.63;;;;;;;15.09;94.66;96228.22;2004271;29;20080;-63
2022/06/13 03:06:02;;;;;;;16.63;10.75;;;;;;;15.11;94.91;96242.06;2009873;29;20529;-67
2022/06/13 03:07:23;;;;;;;15.50;11.15;;;;;;;15.08;94.84;96237.03;2017076;29;20048;-65
2022/06/13 03:09:00;;;;;;;13.55;11.25;;;;;;;15.10;95.05;96221.22;2016618;29;20174;-65
2022/06/13 03:10:09;;;;;;;14.25;11.05;;;;;;;15.15;95.32;96221.78;2021386;29;20049;-65
2022/06/13 03:11:42;;;;;;;14.68;11.68;;;;;;;15.21;94.91;96221.44;2022536;29;20068;-65
2022/06/13 03:13:07;;;;;;;16.02;12.57;;;;;;;15.24;95.27;96217.78;2021171;29;20052;-65
2022/06/13 03:14:34;;;;;;;18.02;12.50;;;;;;;15.22;95.42;96231.78;2011778;29;20053;-65
2022/06/13 03:15:47;;;;;;;15.77;12.05;;;;;;;15.20;95.19;96222.34;2022778;29;20056;-64
2022/06/13 03:17:09;;;;;;;21.42;14.30;;;;;;;15.18;95.56;96218.97;2024531;29;20052;-65
2022/06/13 03:18:14;;;;;;;20.17;14.55;;;;;;;15.16;95.00;96219.09;2018891;29;20049;-66
2022/06/13 03:19:27;;;;;;;15.65;13.10;;;;;;;15.20;95.49;96214.50;2024419;29;20440;-66
2022/06/13 03:20:28;;;;;;;16.15;12.50;;;;;;;15.21;95.69;96214.41;2031768;29;20055;-65
2022/06/13 03:21:34;;;;;;;16.55;13.57;;;;;;;15.22;95.82;96213.47;2023893;29;20037;-64
2022/06/13 03:22:48;;;;;;;16.45;11.25;;;;;;;15.27;95.59;96210.56;2009422;29;20048;-65
2022/06/13 03:23:53;;;;;;;13.82;10.73;;;;;;;15.22;95.12;96213.47;2023842;29;20045;-65
2022/06/13 03:25:00;;;;;;;16.23;10.55;;;;;;;15.22;95.31;96210.84;2016440;29;20097;-67
2022/06/13 03:26:05;;;;;;;14.20;11.48;;;;;;;15.16;95.20;96208.63;2010540;29;20053;-66
2022/06/13 03:27:11;;;;;;;15.48;11.30;;;;;;;15.14;95.27;96218.34;2017051;29;20051;-66
2022/06/13 03:28:26;;;;;;;15.18;11.27;;;;;;;15.13;95.20;96218.41;2017990;29;20059;-67
2022/06/13 03:29:31;;;;;;;13.88;12.07;;;;;;;15.16;95.20;96218.25;2026090;29;20055;-66
2022/06/13 03:30:32;;;;;;;14.85;10.95;;;;;;;15.13;95.56;96224.50;2026662;29;20044;-66
2022/06/13 03:31:36;;;;;;;15.27;11.00;;;;;;;15.16;95.60;96219.09;2026156;29;20053;-62
2022/06/13 03:32:44;;;;;;;14.50;10.63;;;;;;;15.18;94.97;96230.31;2026451;29;20142;-66
2022/06/13 03:34:52;;;;;;;15.38;11.82;;;;;;;15.14;95.02;96228.78;2017316;29;20048;-66
2022/06/13 03:35:53;;;;;;;14.43;12.13;;;;;;;15.15;95.43;96222.63;1996293;29;20051;-65
2022/06/13 03:36:57;;;;;;;15.05;10.63;;;;;;;15.18;94.95;96225.06;2018215;29;20053;-65
2022/06/13 03:37:58;;;;;;;15.15;12.23;;;;;;;15.20;95.28;96231.03;2025317;29;20059;-65
2022/06/13 03:39:26;;;;;;;15.00;12.52;;;;;;;15.15;95.56;96230.47;2002914;29;20441;-66
2022/06/13 03:40:27;;;;;;;14.15;11.25;;;;;;;15.16;95.47;96241.78;2014093;29;20552;-65
2022/06/13 03:41:32;;;;;;;13.32;10.25;;;;;;;15.18;95.36;96238.16;2010936;29;20056;-65
2022/06/13 03:42:47;;;;;;;14.95;11.25;;;;;;;15.18;95.59;96253.84;2019706;29;20049;-63
2022/06/13 03:43:52;;;;;;;13.05;10.25;;;;;;;15.16;95.66;96245.25;2025917;29;20485;-66
2022/06/13 03:44:59;;;;;;;14.77;10.55;;;;;;;15.19;95.39;96249.44;2026584;29;20052;-66
2022/06/13 03:46:03;;;;;;;14.52;10.52;;;;;;;15.21;95.08;96243.19;2018152;29;20097;-66
2022/06/13 03:47:11;;;;;;;15.90;13.07;;;;;;;15.24;95.56;96236.09;2019150;29;20059;-65
2022/06/13 03:48:17;;;;;;;13.75;10.25;;;;;;;15.26;95.57;96242.03;2025361;29;20397;-66
2022/06/13 03:49:23;;;;;;;15.48;12.63;;;;;;;15.24;94.99;96242.16;2017698;29;20173;-65
2022/06/13 03:50:24;;;;;;;13.95;11.15;;;;;;;15.27;95.47;96233.28;2019327;29;20053;-66
2022/06/13 03:51:27;;;;;;;13.07;11.35;;;;;;;15.26;95.48;96237.66;2033324;29;20092;-67
2022/06/13 03:52:29;;;;;;;16.52;12.70;;;;;;;15.25;95.04;96237.75;2026335;29;20037;-66
2022/06/13 03:53:39;;;;;;;12.95;11.38;;;;;;;15.25;95.47;96238.59;2017603;29;20047;-65
2022/06/13 03:54:46;;;;;;;15.63;12.50;;;;;;;15.26;95.32;96242.88;2012660;29;20509;-63
2022/06/13 03:55:53;;;;;;;11.93;10.32;;;;;;;15.30;95.55;96243.56;2023872;29;20048;-66
2022/06/13 03:57:01;;;;;;;19.33;14.48;;;;;;;15.26;94.92;96242.88;2010510;29;20057;-65
2022/06/13 03:58:12;;;;;;;14.90;12.32;;;;;;;15.27;95.00;96247.19;2011314;29;20054;-65
2022/06/13 03:59:20;;;;;;;17.42;12.98;;;;;;;15.24;95.18;96252.63;2018241;29;20053;-65
2022/06/13 04:00:30;;;;;;;15.15;12.10;;;;;;;15.27;95.39;96246.38;2018253;29;20049;-65
2022/06/13 04:01:37;;;;;;;19.65;14.18;;;;;;;15.29;95.42;96244.47;2002441;29;20061;-66
2022/06/13 04:02:39;;;;;;;14.30;12.73;;;;;;;15.32;95.49;96249.53;2003009;29;20057;-65
2022/06/13 04:03:40;;;;;;;22.90;13.73;;;;;;;15.33;95.17;96248.59;2009879;29;20054;-64
2022/06/13 04:04:45;;;;;;;15.23;13.25;;;;;;;15.34;95.43;96238.03;2002993;29;20045;-66
2022/06/13 04:06:02;;;;;;;16.92;13.13;;;;;;;15.33;95.02;96248.59;2010875;29;20057;-65
2022/06/13 04:07:03;;;;;;;17.70;12.43;;;;;;;15.31;95.54;96240.81;2018577;29;20045;-65
2022/06/13 04:08:04;;;;;;;16.02;12.35;;;;;;;15.31;95.22;96238.22;2009839;29;20064;-66
2022/06/13 04:09:24;;;;;;;18.20;13.98;;;;;;;15.30;95.50;96233.91;2010159;29;20524;-65
2022/06/13 04:10:25;;;;;;;20.23;14.20;;;;;;;15.34;95.11;96234.56;2002193;29;20514;-66
2022/06/13 04:12:05;;;;;;;16.90;13.55;;;;;;;15.30;95.74;96235.69;2002683;29;20538;-65
2022/06/13 04:13:18;;;;;;;18.15;13.70;;;;;;;15.30;95.15;96222.63;2002591;29;20594;-64
2022/06/13 04:14:52;;;;;;;19.17;12.55;;;;;;;15.25;95.20;96214.22;2010759;29;20529;-65
2022/06/13 04:16:02;;;;;;;16.60;13.43;;;;;;;15.33;95.49;96230.28;2009952;29;20060;-65
2022/06/13 04:17:11;;;;;;;17.88;13.00;;;;;;;15.34;95.56;96231.94;1996239;29;20046;-64
2022/06/13 04:18:19;;;;;;;;;;;;;;;15.32;95.63;96236.47;2005137;29;20080;-65
2022/06/13 04:19:46;;;;;;;17.30;13.10;;;;;;;15.30;95.27;96238.31;2017872;29;19923;-65
2022/06/13 04:21:11;;;;;;;18.55;13.90;;;;;;;15.25;95.17;96237.75;2009809;29;20057;-64
2022/06/13 04:22:28;;;;;;;17.45;12.32;;;;;;;15.22;95.57;96239.63;2015955;29;20052;-65
2022/06/13 04:23:51;;;;;;;18.45;13.23;;;;;;;15.27;95.27;96244.59;2001786;29;20510;-64
2022/06/13 04:25:12;;;;;;;17.95;12.75;;;;;;;15.26;95.40;96250.72;2005302;29;20068;-66
2022/06/13 04:26:17;;;;;;;16.58;13.10;;;;;;;15.28;95.66;96242.81;2014781;29;20057;-64
2022/06/13 04:27:23;;;;;;;16.08;13.18;;;;;;;15.29;95.21;96249.69;2018731;29;20521;-64
2022/06/13 04:28:28;;;;;;;16.80;13.05;;;;;;;15.33;95.58;96252.03;2018017;29;20101;-65
2022/06/13 04:29:34;;;;;;;15.07;11.85;;;;;;;15.35;95.22;96241.50;2025471;29;20047;-64
2022/06/13 04:30:35;;;;;;;17.08;12.45;;;;;;;15.36;95.34;96245.78;2026354;29;20049;-65
2022/06/13 04:31:37;;;;;;;16.08;12.93;;;;;;;15.38;95.15;96239.50;2025134;29;20051;-65
2022/06/13 04:33:16;;;;;;;17.52;13.75;;;;;;;15.40;95.49;96244.66;2009648;29;20433;-65
2022/06/13 04:34:19;;;;;;;17.92;13.45;;;;;;;15.44;95.36;96236.50;2019977;29;20067;-64
2022/06/13 04:35:21;;;;;;;19.27;14.48;;;;;;;15.42;94.92;96229.69;2018236;29;20048;-65
2022/06/13 04:36:22;;;;;;;19.85;12.52;;;;;;;15.48;95.33;96231.09;2018034;29;20537;-65
2022/06/13 04:37:23;;;;;;;17.88;13.05;;;;;;;15.53;95.47;96236.88;2010803;29;20677;-65
2022/06/13 04:38:24;;;;;;;17.77;12.27;;;;;;;15.55;95.18;96233.22;2025589;29;20060;-66
2022/06/13 04:39:27;;;;;;;16.13;12.18;;;;;;;15.59;95.42;96226.84;2016925;29;20048;-67
2022/06/13 04:40:29;;;;;;;15.85;12.02;;;;;;;15.56;95.27;96227.06;2018484;29;20529;-66
2022/06/13 04:41:31;;;;;;;15.60;13.38;;;;;;;15.60;95.51;96227.69;2025775;29;20049;-64
2022/06/13 04:42:34;;;;;;;18.17;13.50;;;;;;;15.63;94.83;96227.50;2025161;29;20043;-62
2022/06/13 04:43:38;;;;;;;16.92;12.63;;;;;;;15.57;94.84;96233.97;2017603;29;20547;-65
2022/06/13 04:44:40;;;;;;;16.00;13.38;;;;;;;15.55;95.13;96235.00;2018679;29;20041;-64
2022/06/13 04:45:50;;;;;;;16.83;14.55;;;;;;;15.61;95.10;96235.47;2017682;29;20058;-63
2022/06/13 04:46:51;;;;;;;20.85;14.85;;;;;;;15.65;94.90;96233.47;2012428;29;20537;-64
2022/06/13 04:47:53;;;;;;;22.77;15.80;;;;;;;15.73;94.62;96240.88;2017062;29;20052;-65
2022/06/13 04:48:56;;;;;;;16.02;13.18;;;;;;;15.71;94.62;96235.72;2024769;29;20056;-64
2022/06/13 04:49:57;;;;;;;19.45;13.07;;;;;;;15.73;94.87;96243.50;2017541;29;20060;-65
2022/06/13 04:51:00;;;;;;;14.90;12.48;;;;;;;15.68;94.58;96241.13;2009591;29;20053;-65
2022/06/13 04:52:05;;;;;;;15.27;12.52;;;;;;;15.75;94.79;96246.88;2017742;29;20056;-65
2022/06/13 04:53:09;;;;;;;17.42;12.25;;;;;;;15.80;94.51;96244.78;2025398;29;20052;-64
2022/06/13 04:54:32;;;;;;;15.30;12.75;;;;;;;15.84;95.05;96252.34;2016847;29;20564;-66
2022/06/13 04:55:41;;;;;;;18.13;13.55;;;;;;;15.90;95.12;96250.25;2022902;29;20527;-63
2022/06/13 04:56:43;;;;;;;;;;;;;;;15.87;93.93;96246.91;2025332;29;20556;-65
2022/06/13 04:57:44;;;;;;;16.10;13.18;;;;;;;15.90;93.97;96247.66;2024932;29;19922;-64
2022/06/13 04:58:45;;;;;;;18.80;13.25;;;;;;;15.88;93.94;96248.59;2024469;29;20052;-64
2022/06/13 04:59:46;;;;;;;15.05;11.55;;;;;;;15.95;93.99;96253.44;2017068;29;20057;-67
2022/06/13 05:00:49;;;;;;;14.60;11.20;;;;;;;15.94;94.21;96255.22;2025072;29;20059;-65
2022/06/13 05:01:50;;;;;;;14.43;11.85;;;;;;;15.95;93.56;96256.06;2033362;29;20051;-65
2022/06/13 05:02:53;;;;;;;15.38;13.18;;;;;;;16.00;93.72;96257.44;2033299;29;20531;-65
2022/06/13 05:03:56;;;;;;;15.55;12.18;;;;;;;15.96;93.35;96255.97;2032465;29;20082;-67
2022/06/13 05:04:57;;;;;;;14.63;11.48;;;;;;;16.01;93.96;96259.13;2024862;29;20056;-64
2022/06/13 05:06:02;;;;;;;16.50;11.10;;;;;;;15.99;93.07;96261.00;2025527;29;20052;-64
2022/06/13 05:07:21;;;;;;;12.95;11.10;;;;;;;16.06;93.51;96257.06;2033235;29;20056;-64
2022/06/13 05:08:25;;;;;;;16.63;12.48;;;;;;;16.07;92.98;96263.97;2024680;29;20048;-63
2022/06/13 05:09:29;;;;;;;13.48;10.93;;;;;;;16.06;93.25;96266.66;2024740;29;20079;-66
2022/06/13 05:10:31;;;;;;;17.13;12.23;;;;;;;16.15;92.38;96260.84;2032073;29;20051;-64
2022/06/13 05:11:36;;;;;;;14.30;9.75;;;;;;;16.25;93.37;96267.16;2025119;29;20432;-61
2022/06/13 05:12:40;;;;;;;16.15;10.27;;;;;;;16.22;92.75;96258.66;2033531;29;20048;-64
2022/06/13 05:13:41;;;;;;;14.95;10.77;;;;;;;16.14;91.65;96255.69;2017260;29;20049;-62
2022/06/13 05:14:47;;;;;;;12.07;10.73;;;;;;;16.10;91.56;96255.91;2002713;29;20107;-63
2022/06/13 05:15:53;;;;;;;13.40;10.35;;;;;;;16.18;92.03;96250.16;2010897;29;20071;-64
2022/06/13 05:17:19;;;;;;;16.08;10.52;;;;;;;16.22;91.88;96259.47;2017599;29;20053;-62
2022/06/13 05:18:32;;;;;;;14.13;10.00;;;;;;;16.20;91.93;96271.88;2028263;29;20040;-64
2022/06/13 05:19:40;;;;;;;15.68;10.48;;;;;;;16.26;92.02;96271.47;2024313;29;20044;-62
2022/06/13 05:20:54;;;;;;;13.45;10.05;;;;;;;16.17;91.76;96269.47;2018156;29;20053;-64